sensor_id;sensor_type;location;lat;lon;timestamp;P1;durP1;ratioP1;P2;durP2;ratioP2
53273;SDS011;39163;52.696;6.758;2024-01-30T00:01:39;19.60;;;11.95;;
53273;SDS011;39163;52.696;6.758;2024-01-30T00:04:06;17.02;;;11.85;;
53273;SDS011;39163;52.696;6.758;2024-01-30T00:06:33;22.33;;;12.15;;
53273;SDS011;39163;52.696;6.758;2024-01-30T00:09:00;20.20;;;11.88;;
53273;SDS011;39163;52.696;6.758;2024-01-30T00:11:28;18.30;;;11.82;;
53273;SDS011;39163;52.696;6.758;2024-01-30T00:13:56;18.80;;;11.63;;
53273;SDS011;39163;52.696;6.758;2024-01-30T00:16:23;18.50;;;11.60;;
53273;SDS011;39163;52.696;6.758;2024-01-30T00:18:50;17.75;;;11.50;;
53273;SDS011;39163;52.696;6.758;2024-01-30T00:21:18;17.08;;;11.15;;
53273;SDS011;39163;52.696;6.758;2024-01-30T00:23:46;20.15;;;11.13;;
53273;SDS011;39163;52.696;6.758;2024-01-30T00:26:13;18.42;;;11.88;;
53273;SDS011;39163;52.696;6.758;2024-01-30T00:28:42;16.52;;;11.50;;
53273;SDS011;39163;52.696;6.758;2024-01-30T00:31:09;20.23;;;11.07;;
53273;SDS011;39163;52.696;6.758;2024-01-30T00:33:37;17.77;;;11.48;;
53273;SDS011;39163;52.696;6.758;2024-01-30T00:36:04;17.58;;;12.02;;
53273;SDS011;39163;52.696;6.758;2024-01-30T00:38:32;17.00;;;11.20;;
53273;SDS011;39163;52.696;6.758;2024-01-30T00:40:59;21.45;;;11.77;;
53273;SDS011;39163;52.696;6.758;2024-01-30T00:43:27;18.50;;;11.65;;
53273;SDS011;39163;52.696;6.758;2024-01-30T00:45:56;17.52;;;11.13;;
53273;SDS011;39163;52.696;6.758;2024-01-30T00:48:23;16.55;;;11.70;;
53273;SDS011;39163;52.696;6.758;2024-01-30T00:50:50;14.50;;;11.38;;
53273;SDS011;39163;52.696;6.758;2024-01-30T00:53:17;21.20;;;11.98;;
53273;SDS011;39163;52.696;6.758;2024-01-30T00:55:44;18.90;;;12.43;;
53273;SDS011;39163;52.696;6.758;2024-01-30T00:58:11;17.27;;;10.95;;
53273;SDS011;39163;52.696;6.758;2024-01-30T01:00:38;14.90;;;11.02;;
53273;SDS011;39163;52.696;6.758;2024-01-30T01:03:06;15.15;;;11.23;;
53273;SDS011;39163;52.696;6.758;2024-01-30T01:05:34;15.75;;;11.18;;
53273;SDS011;39163;52.696;6.758;2024-01-30T01:08:00;18.80;;;10.98;;
53273;SDS011;39163;52.696;6.758;2024-01-30T01:10:27;22.58;;;12.32;;
53273;SDS011;39163;52.696;6.758;2024-01-30T01:12:54;18.25;;;11.50;;
53273;SDS011;39163;52.696;6.758;2024-01-30T01:15:21;17.95;;;10.95;;
53273;SDS011;39163;52.696;6.758;2024-01-30T01:17:48;18.00;;;12.07;;
53273;SDS011;39163;52.696;6.758;2024-01-30T01:20:16;18.80;;;11.70;;
53273;SDS011;39163;52.696;6.758;2024-01-30T01:22:43;15.30;;;10.43;;
53273;SDS011;39163;52.696;6.758;2024-01-30T01:25:10;17.17;;;11.20;;
53273;SDS011;39163;52.696;6.758;2024-01-30T01:27:37;16.77;;;10.85;;
53273;SDS011;39163;52.696;6.758;2024-01-30T01:30:07;18.30;;;11.20;;
53273;SDS011;39163;52.696;6.758;2024-01-30T01:32:35;19.45;;;11.00;;
53273;SDS011;39163;52.696;6.758;2024-01-30T01:35:03;16.25;;;9.95;;
53273;SDS011;39163;52.696;6.758;2024-01-30T01:37:32;16.02;;;10.52;;
53273;SDS011;39163;52.696;6.758;2024-01-30T01:39:59;17.85;;;10.45;;
53273;SDS011;39163;52.696;6.758;2024-01-30T01:42:28;16.15;;;10.30;;
53273;SDS011;39163;52.696;6.758;2024-01-30T01:44:55;15.23;;;10.48;;
53273;SDS011;39163;52.696;6.758;2024-01-30T01:47:22;14.90;;;11.23;;
53273;SDS011;39163;52.696;6.758;2024-01-30T01:49:49;17.70;;;10.40;;
53273;SDS011;39163;52.696;6.758;2024-01-30T01:52:16;18.73;;;10.25;;
53273;SDS011;39163;52.696;6.758;2024-01-30T01:54:45;16.00;;;10.77;;
53273;SDS011;39163;52.696;6.758;2024-01-30T01:57:11;16.88;;;10.55;;
53273;SDS011;39163;52.696;6.758;2024-01-30T01:59:38;14.77;;;10.23;;
53273;SDS011;39163;52.696;6.758;2024-01-30T02:02:06;16.50;;;9.98;;
53273;SDS011;39163;52.696;6.758;2024-01-30T02:04:37;18.63;;;10.10;;
53273;SDS011;39163;52.696;6.758;2024-01-30T02:07:04;15.82;;;10.73;;
53273;SDS011;39163;52.696;6.758;2024-01-30T02:09:31;16.83;;;9.82;;
53273;SDS011;39163;52.696;6.758;2024-01-30T02:11:59;17.15;;;10.80;;
53273;SDS011;39163;52.696;6.758;2024-01-30T02:14:26;18.35;;;10.45;;
53273;SDS011;39163;52.696;6.758;2024-01-30T02:16:53;17.70;;;11.02;;
53273;SDS011;39163;52.696;6.758;2024-01-30T02:19:20;15.65;;;10.50;;
53273;SDS011;39163;52.696;6.758;2024-01-30T02:21:48;17.77;;;10.80;;
53273;SDS011;39163;52.696;6.758;2024-01-30T02:24:16;20.55;;;10.32;;
53273;SDS011;39163;52.696;6.758;2024-01-30T02:26:43;13.98;;;10.48;;
53273;SDS011;39163;52.696;6.758;2024-01-30T02:29:10;17.65;;;10.98;;
53273;SDS011;39163;52.696;6.758;2024-01-30T02:31:37;17.88;;;10.48;;
53273;SDS011;39163;52.696;6.758;2024-01-30T02:34:04;19.25;;;10.98;;
53273;SDS011;39163;52.696;6.758;2024-01-30T02:36:31;14.30;;;10.43;;
53273;SDS011;39163;52.696;6.758;2024-01-30T02:38:59;14.07;;;9.55;;
53273;SDS011;39163;52.696;6.758;2024-01-30T02:41:26;16.45;;;10.98;;
53273;SDS011;39163;52.696;6.758;2024-01-30T02:43:53;18.77;;;10.82;;
53273;SDS011;39163;52.696;6.758;2024-01-30T02:46:20;20.27;;;10.65;;
53273;SDS011;39163;52.696;6.758;2024-01-30T02:48:47;16.17;;;10.45;;
53273;SDS011;39163;52.696;6.758;2024-01-30T02:51:14;15.35;;;10.68;;
53273;SDS011;39163;52.696;6.758;2024-01-30T02:53:41;14.65;;;10.57;;
53273;SDS011;39163;52.696;6.758;2024-01-30T02:56:10;13.10;;;10.13;;
53273;SDS011;39163;52.696;6.758;2024-01-30T02:58:38;17.20;;;10.75;;
53273;SDS011;39163;52.696;6.758;2024-01-30T03:01:06;15.85;;;10.43;;
53273;SDS011;39163;52.696;6.758;2024-01-30T03:03:33;15.88;;;9.30;;
53273;SDS011;39163;52.696;6.758;2024-01-30T03:06:01;12.85;;;9.55;;
53273;SDS011;39163;52.696;6.758;2024-01-30T03:08:28;16.13;;;10.65;;
53273;SDS011;39163;52.696;6.758;2024-01-30T03:10:55;16.40;;;9.60;;
53273;SDS011;39163;52.696;6.758;2024-01-30T03:13:23;17.25;;;10.65;;
53273;SDS011;39163;52.696;6.758;2024-01-30T03:15:50;15.60;;;10.27;;
53273;SDS011;39163;52.696;6.758;2024-01-30T03:18:17;19.05;;;9.63;;
53273;SDS011;39163;52.696;6.758;2024-01-30T03:20:44;13.88;;;9.65;;
53273;SDS011;39163;52.696;6.758;2024-01-30T03:23:11;13.82;;;10.20;;
53273;SDS011;39163;52.696;6.758;2024-01-30T03:25:38;16.25;;;10.50;;
53273;SDS011;39163;52.696;6.758;2024-01-30T03:28:05;15.57;;;10.30;;
53273;SDS011;39163;52.696;6.758;2024-01-30T03:30:33;15.00;;;9.55;;
53273;SDS011;39163;52.696;6.758;2024-01-30T03:33:00;15.55;;;10.82;;
53273;SDS011;39163;52.696;6.758;2024-01-30T03:35:27;18.80;;;11.23;;
53273;SDS011;39163;52.696;6.758;2024-01-30T03:37:54;14.70;;;9.80;;
53273;SDS011;39163;52.696;6.758;2024-01-30T03:40:20;17.83;;;10.68;;
53273;SDS011;39163;52.696;6.758;2024-01-30T03:42:48;19.48;;;11.05;;
53273;SDS011;39163;52.696;6.758;2024-01-30T03:45:15;19.00;;;10.80;;
53273;SDS011;39163;52.696;6.758;2024-01-30T03:47:46;18.00;;;10.35;;
53273;SDS011;39163;52.696;6.758;2024-01-30T03:50:13;17.33;;;9.95;;
53273;SDS011;39163;52.696;6.758;2024-01-30T03:52:40;11.45;;;9.65;;
53273;SDS011;39163;52.696;6.758;2024-01-30T03:55:07;13.82;;;10.13;;
53273;SDS011;39163;52.696;6.758;2024-01-30T03:57:34;17.95;;;11.45;;
53273;SDS011;39163;52.696;6.758;2024-01-30T04:00:01;16.52;;;10.45;;
53273;SDS011;39163;52.696;6.758;2024-01-30T04:02:30;14.43;;;9.73;;
53273;SDS011;39163;52.696;6.758;2024-01-30T04:04:58;16.67;;;10.65;;
53273;SDS011;39163;52.696;6.758;2024-01-30T04:07:25;15.25;;;10.20;;
53273;SDS011;39163;52.696;6.758;2024-01-30T04:09:52;17.48;;;10.38;;
53273;SDS011;39163;52.696;6.758;2024-01-30T04:12:19;17.58;;;10.18;;
53273;SDS011;39163;52.696;6.758;2024-01-30T04:14:46;18.48;;;10.70;;
53273;SDS011;39163;52.696;6.758;2024-01-30T04:17:12;15.85;;;10.48;;
53273;SDS011;39163;52.696;6.758;2024-01-30T04:19:40;18.50;;;11.27;;
53273;SDS011;39163;52.696;6.758;2024-01-30T04:22:09;20.27;;;10.55;;
53273;SDS011;39163;52.696;6.758;2024-01-30T04:24:36;15.80;;;10.73;;
53273;SDS011;39163;52.696;6.758;2024-01-30T04:27:03;15.38;;;9.88;;
53273;SDS011;39163;52.696;6.758;2024-01-30T04:29:30;16.60;;;10.57;;
53273;SDS011;39163;52.696;6.758;2024-01-30T04:31:58;17.15;;;10.48;;
53273;SDS011;39163;52.696;6.758;2024-01-30T04:34:25;18.88;;;11.23;;
53273;SDS011;39163;52.696;6.758;2024-01-30T04:36:52;14.68;;;10.65;;
53273;SDS011;39163;52.696;6.758;2024-01-30T04:39:20;17.48;;;11.15;;
53273;SDS011;39163;52.696;6.758;2024-01-30T04:41:48;20.67;;;12.07;;
53273;SDS011;39163;52.696;6.758;2024-01-30T04:44:15;15.85;;;11.23;;
53273;SDS011;39163;52.696;6.758;2024-01-30T04:46:41;17.50;;;10.43;;
53273;SDS011;39163;52.696;6.758;2024-01-30T04:49:08;18.40;;;10.75;;
53273;SDS011;39163;52.696;6.758;2024-01-30T04:51:35;19.52;;;10.30;;
53273;SDS011;39163;52.696;6.758;2024-01-30T04:54:02;18.40;;;11.50;;
53273;SDS011;39163;52.696;6.758;2024-01-30T04:56:31;17.92;;;11.02;;
53273;SDS011;39163;52.696;6.758;2024-01-30T04:58:58;14.75;;;10.60;;
53273;SDS011;39163;52.696;6.758;2024-01-30T05:01:24;20.15;;;10.90;;
53273;SDS011;39163;52.696;6.758;2024-01-30T05:03:51;18.88;;;11.40;;
53273;SDS011;39163;52.696;6.758;2024-01-30T05:06:23;17.70;;;10.57;;
53273;SDS011;39163;52.696;6.758;2024-01-30T05:08:51;17.85;;;10.43;;
53273;SDS011;39163;52.696;6.758;2024-01-30T05:11:18;15.30;;;10.95;;
53273;SDS011;39163;52.696;6.758;2024-01-30T05:13:46;19.50;;;11.65;;
53273;SDS011;39163;52.696;6.758;2024-01-30T05:16:13;16.90;;;10.25;;
53273;SDS011;39163;52.696;6.758;2024-01-30T05:18:40;15.65;;;11.05;;
53273;SDS011;39163;52.696;6.758;2024-01-30T05:21:07;16.15;;;10.88;;
53273;SDS011;39163;52.696;6.758;2024-01-30T05:23:34;25.63;;;11.75;;
53273;SDS011;39163;52.696;6.758;2024-01-30T05:26:01;15.25;;;10.65;;
53273;SDS011;39163;52.696;6.758;2024-01-30T05:28:28;17.77;;;11.15;;
53273;SDS011;39163;52.696;6.758;2024-01-30T05:30:57;15.13;;;10.32;;
53273;SDS011;39163;52.696;6.758;2024-01-30T05:33:24;14.75;;;10.52;;
53273;SDS011;39163;52.696;6.758;2024-01-30T05:35:51;20.38;;;11.35;;
53273;SDS011;39163;52.696;6.758;2024-01-30T05:38:19;12.77;;;10.15;;
53273;SDS011;39163;52.696;6.758;2024-01-30T05:40:46;17.58;;;10.95;;
53273;SDS011;39163;52.696;6.758;2024-01-30T05:43:13;18.02;;;10.75;;
53273;SDS011;39163;52.696;6.758;2024-01-30T05:45:40;15.18;;;10.35;;
53273;SDS011;39163;52.696;6.758;2024-01-30T05:48:09;14.80;;;9.77;;
53273;SDS011;39163;52.696;6.758;2024-01-30T05:50:36;16.23;;;10.57;;
53273;SDS011;39163;52.696;6.758;2024-01-30T05:53:03;15.60;;;10.32;;
53273;SDS011;39163;52.696;6.758;2024-01-30T05:55:30;18.25;;;11.70;;
53273;SDS011;39163;52.696;6.758;2024-01-30T05:57:57;16.08;;;10.07;;
53273;SDS011;39163;52.696;6.758;2024-01-30T06:00:24;16.10;;;10.90;;
53273;SDS011;39163;52.696;6.758;2024-01-30T06:02:50;13.20;;;9.38;;
53273;SDS011;39163;52.696;6.758;2024-01-30T06:05:19;17.80;;;10.77;;
53273;SDS011;39163;52.696;6.758;2024-01-30T06:07:46;15.90;;;9.65;;
53273;SDS011;39163;52.696;6.758;2024-01-30T06:10:13;15.00;;;10.48;;
53273;SDS011;39163;52.696;6.758;2024-01-30T06:12:40;14.15;;;9.52;;
53273;SDS011;39163;52.696;6.758;2024-01-30T06:15:07;18.48;;;11.95;;
53273;SDS011;39163;52.696;6.758;2024-01-30T06:17:35;14.73;;;10.00;;
53273;SDS011;39163;52.696;6.758;2024-01-30T06:20:02;18.10;;;10.73;;
53273;SDS011;39163;52.696;6.758;2024-01-30T06:22:31;26.05;;;17.00;;
53273;SDS011;39163;52.696;6.758;2024-01-30T06:24:58;15.18;;;11.45;;
53273;SDS011;39163;52.696;6.758;2024-01-30T06:27:25;15.50;;;10.35;;
53273;SDS011;39163;52.696;6.758;2024-01-30T06:29:52;15.85;;;10.38;;
53273;SDS011;39163;52.696;6.758;2024-01-30T06:32:19;14.27;;;10.15;;
53273;SDS011;39163;52.696;6.758;2024-01-30T06:34:46;14.52;;;9.27;;
53273;SDS011;39163;52.696;6.758;2024-01-30T06:37:13;16.40;;;10.60;;
53273;SDS011;39163;52.696;6.758;2024-01-30T06:39:41;13.10;;;10.07;;
53273;SDS011;39163;52.696;6.758;2024-01-30T06:42:09;15.35;;;9.57;;
53273;SDS011;39163;52.696;6.758;2024-01-30T06:44:37;15.65;;;10.68;;
53273;SDS011;39163;52.696;6.758;2024-01-30T06:47:04;16.35;;;10.38;;
53273;SDS011;39163;52.696;6.758;2024-01-30T06:49:31;19.92;;;11.38;;
53273;SDS011;39163;52.696;6.758;2024-01-30T06:51:57;13.00;;;9.88;;
53273;SDS011;39163;52.696;6.758;2024-01-30T06:54:24;17.92;;;11.55;;
53273;SDS011;39163;52.696;6.758;2024-01-30T06:56:53;17.58;;;10.57;;
53273;SDS011;39163;52.696;6.758;2024-01-30T06:59:19;14.65;;;9.93;;
53273;SDS011;39163;52.696;6.758;2024-01-30T07:01:46;15.20;;;10.13;;
53273;SDS011;39163;52.696;6.758;2024-01-30T07:04:14;14.82;;;9.45;;
53273;SDS011;39163;52.696;6.758;2024-01-30T07:06:41;15.23;;;9.88;;
53273;SDS011;39163;52.696;6.758;2024-01-30T07:09:08;15.15;;;10.95;;
53273;SDS011;39163;52.696;6.758;2024-01-30T07:11:35;15.40;;;10.50;;
53273;SDS011;39163;52.696;6.758;2024-01-30T07:14:03;15.98;;;10.60;;
53273;SDS011;39163;52.696;6.758;2024-01-30T07:16:30;19.95;;;11.02;;
53273;SDS011;39163;52.696;6.758;2024-01-30T07:18:57;14.88;;;9.70;;
53273;SDS011;39163;52.696;6.758;2024-01-30T07:21:24;15.57;;;9.85;;
53273;SDS011;39163;52.696;6.758;2024-01-30T07:23:53;18.70;;;11.85;;
53273;SDS011;39163;52.696;6.758;2024-01-30T07:26:20;14.57;;;10.20;;
53273;SDS011;39163;52.696;6.758;2024-01-30T07:28:47;13.80;;;9.88;;
53273;SDS011;39163;52.696;6.758;2024-01-30T07:31:16;16.33;;;9.55;;
53273;SDS011;39163;52.696;6.758;2024-01-30T07:33:45;15.48;;;9.20;;
53273;SDS011;39163;52.696;6.758;2024-01-30T07:36:13;15.32;;;10.63;;
53273;SDS011;39163;52.696;6.758;2024-01-30T07:38:39;22.98;;;13.63;;
53273;SDS011;39163;52.696;6.758;2024-01-30T07:41:06;18.67;;;11.38;;
53273;SDS011;39163;52.696;6.758;2024-01-30T07:43:34;18.50;;;12.60;;
53273;SDS011;39163;52.696;6.758;2024-01-30T07:46:01;17.92;;;12.15;;
53273;SDS011;39163;52.696;6.758;2024-01-30T07:48:29;24.88;;;13.48;;
53273;SDS011;39163;52.696;6.758;2024-01-30T07:50:56;16.27;;;9.73;;
53273;SDS011;39163;52.696;6.758;2024-01-30T07:53:24;14.63;;;10.10;;
53273;SDS011;39163;52.696;6.758;2024-01-30T07:55:51;15.55;;;9.45;;
53273;SDS011;39163;52.696;6.758;2024-01-30T07:58:18;14.50;;;9.18;;
53273;SDS011;39163;52.696;6.758;2024-01-30T08:00:45;12.25;;;8.55;;
53273;SDS011;39163;52.696;6.758;2024-01-30T08:03:12;13.77;;;9.43;;
53273;SDS011;39163;52.696;6.758;2024-01-30T08:05:42;13.68;;;9.80;;
53273;SDS011;39163;52.696;6.758;2024-01-30T08:08:09;12.32;;;8.93;;
53273;SDS011;39163;52.696;6.758;2024-01-30T08:10:36;15.10;;;8.50;;
53273;SDS011;39163;52.696;6.758;2024-01-30T08:13:03;14.55;;;9.50;;
53273;SDS011;39163;52.696;6.758;2024-01-30T08:15:30;14.18;;;9.18;;
53273;SDS011;39163;52.696;6.758;2024-01-30T08:17:57;15.65;;;8.63;;
53273;SDS011;39163;52.696;6.758;2024-01-30T08:20:24;13.25;;;9.18;;
53273;SDS011;39163;52.696;6.758;2024-01-30T08:22:52;11.45;;;8.25;;
53273;SDS011;39163;52.696;6.758;2024-01-30T08:25:19;13.13;;;8.98;;
53273;SDS011;39163;52.696;6.758;2024-01-30T08:27:46;13.25;;;9.40;;
53273;SDS011;39163;52.696;6.758;2024-01-30T08:30:14;13.40;;;9.52;;
53273;SDS011;39163;52.696;6.758;2024-01-30T08:32:41;12.48;;;8.80;;
53273;SDS011;39163;52.696;6.758;2024-01-30T08:35:08;16.80;;;8.40;;
53273;SDS011;39163;52.696;6.758;2024-01-30T08:37:35;11.25;;;8.35;;
53273;SDS011;39163;52.696;6.758;2024-01-30T08:40:04;16.40;;;8.55;;
53273;SDS011;39163;52.696;6.758;2024-01-30T08:42:33;15.68;;;9.05;;
53273;SDS011;39163;52.696;6.758;2024-01-30T08:45:00;11.65;;;8.75;;
53273;SDS011;39163;52.696;6.758;2024-01-30T08:47:29;11.75;;;8.32;;
53273;SDS011;39163;52.696;6.758;2024-01-30T08:49:58;12.07;;;8.05;;
53273;SDS011;39163;52.696;6.758;2024-01-30T08:52:25;11.10;;;8.02;;
53273;SDS011;39163;52.696;6.758;2024-01-30T08:54:52;11.05;;;7.82;;
53273;SDS011;39163;52.696;6.758;2024-01-30T08:57:21;12.27;;;7.68;;
53273;SDS011;39163;52.696;6.758;2024-01-30T08:59:47;12.05;;;7.43;;
53273;SDS011;39163;52.696;6.758;2024-01-30T09:02:14;10.82;;;7.85;;
53273;SDS011;39163;52.696;6.758;2024-01-30T09:04:43;11.60;;;7.47;;
53273;SDS011;39163;52.696;6.758;2024-01-30T09:07:10;14.63;;;8.43;;
53273;SDS011;39163;52.696;6.758;2024-01-30T09:09:38;13.45;;;8.70;;
53273;SDS011;39163;52.696;6.758;2024-01-30T09:12:06;11.73;;;8.02;;
53273;SDS011;39163;52.696;6.758;2024-01-30T09:14:36;12.38;;;8.68;;
53273;SDS011;39163;52.696;6.758;2024-01-30T09:17:03;11.95;;;7.60;;
53273;SDS011;39163;52.696;6.758;2024-01-30T09:19:30;12.93;;;7.32;;
53273;SDS011;39163;52.696;6.758;2024-01-30T09:21:57;12.77;;;8.50;;
53273;SDS011;39163;52.696;6.758;2024-01-30T09:24:25;14.00;;;7.90;;
53273;SDS011;39163;52.696;6.758;2024-01-30T09:26:52;11.70;;;7.53;;
53273;SDS011;39163;52.696;6.758;2024-01-30T09:29:19;12.80;;;7.40;;
53273;SDS011;39163;52.696;6.758;2024-01-30T09:31:48;11.85;;;8.27;;
53273;SDS011;39163;52.696;6.758;2024-01-30T09:34:15;15.05;;;7.30;;
53273;SDS011;39163;52.696;6.758;2024-01-30T09:36:42;14.35;;;8.73;;
53273;SDS011;39163;52.696;6.758;2024-01-30T09:39:09;10.18;;;7.28;;
53273;SDS011;39163;52.696;6.758;2024-01-30T09:41:47;11.27;;;7.50;;
53273;SDS011;39163;52.696;6.758;2024-01-30T09:44:16;10.40;;;8.43;;
53273;SDS011;39163;52.696;6.758;2024-01-30T09:46:43;12.52;;;7.57;;
53273;SDS011;39163;52.696;6.758;2024-01-30T09:49:15;13.02;;;8.10;;
53273;SDS011;39163;52.696;6.758;2024-01-30T09:51:43;10.65;;;7.07;;
53273;SDS011;39163;52.696;6.758;2024-01-30T09:54:12;10.85;;;7.88;;
53273;SDS011;39163;52.696;6.758;2024-01-30T09:56:41;11.52;;;7.78;;
53273;SDS011;39163;52.696;6.758;2024-01-30T09:59:08;11.68;;;7.40;;
53273;SDS011;39163;52.696;6.758;2024-01-30T10:01:35;13.23;;;7.40;;
53273;SDS011;39163;52.696;6.758;2024-01-30T10:04:02;13.82;;;9.07;;
53273;SDS011;39163;52.696;6.758;2024-01-30T10:06:32;15.20;;;9.82;;
53273;SDS011;39163;52.696;6.758;2024-01-30T10:08:59;18.60;;;10.15;;
53273;SDS011;39163;52.696;6.758;2024-01-30T10:11:26;18.08;;;9.95;;
53273;SDS011;39163;52.696;6.758;2024-01-30T10:13:53;17.23;;;8.40;;
53273;SDS011;39163;52.696;6.758;2024-01-30T10:16:20;16.27;;;9.82;;
53273;SDS011;39163;52.696;6.758;2024-01-30T10:18:47;9.82;;;7.80;;
53273;SDS011;39163;52.696;6.758;2024-01-30T10:21:14;12.00;;;7.78;;
53273;SDS011;39163;52.696;6.758;2024-01-30T10:23:43;11.48;;;7.30;;
53273;SDS011;39163;52.696;6.758;2024-01-30T10:26:10;14.80;;;7.45;;
53273;SDS011;39163;52.696;6.758;2024-01-30T10:28:37;12.88;;;8.20;;
53273;SDS011;39163;52.696;6.758;2024-01-30T10:31:04;10.02;;;6.97;;
53273;SDS011;39163;52.696;6.758;2024-01-30T10:33:31;13.70;;;7.50;;
53273;SDS011;39163;52.696;6.758;2024-01-30T10:36:00;14.13;;;6.80;;
53273;SDS011;39163;52.696;6.758;2024-01-30T10:38:28;10.85;;;6.90;;
53273;SDS011;39163;52.696;6.758;2024-01-30T10:40:57;12.00;;;6.85;;
53273;SDS011;39163;52.696;6.758;2024-01-30T10:43:29;11.70;;;6.80;;
53273;SDS011;39163;52.696;6.758;2024-01-30T10:46:01;12.87;;;8.07;;
53273;SDS011;39163;52.696;6.758;2024-01-30T10:48:40;12.95;;;8.13;;
53273;SDS011;39163;52.696;6.758;2024-01-30T10:51:09;15.65;;;8.38;;
53273;SDS011;39163;52.696;6.758;2024-01-30T10:53:37;15.88;;;8.05;;
53273;SDS011;39163;52.696;6.758;2024-01-30T10:56:07;10.88;;;6.80;;
53273;SDS011;39163;52.696;6.758;2024-01-30T10:58:36;11.77;;;7.13;;
53273;SDS011;39163;52.696;6.758;2024-01-30T11:01:03;12.02;;;7.63;;
53273;SDS011;39163;52.696;6.758;2024-01-30T11:03:32;11.48;;;8.85;;
53273;SDS011;39163;52.696;6.758;2024-01-30T11:06:02;14.27;;;6.88;;
53273;SDS011;39163;52.696;6.758;2024-01-30T11:08:31;12.25;;;7.68;;
53273;SDS011;39163;52.696;6.758;2024-01-30T11:10:58;14.10;;;9.38;;
53273;SDS011;39163;52.696;6.758;2024-01-30T11:13:30;11.85;;;7.35;;
53273;SDS011;39163;52.696;6.758;2024-01-30T11:16:00;10.27;;;7.15;;
53273;SDS011;39163;52.696;6.758;2024-01-30T11:18:28;13.85;;;7.13;;
53273;SDS011;39163;52.696;6.758;2024-01-30T11:20:56;13.57;;;8.35;;
53273;SDS011;39163;52.696;6.758;2024-01-30T11:23:23;11.23;;;8.52;;
53273;SDS011;39163;52.696;6.758;2024-01-30T11:25:52;12.77;;;8.00;;
53273;SDS011;39163;52.696;6.758;2024-01-30T11:28:20;10.07;;;7.35;;
53273;SDS011;39163;52.696;6.758;2024-01-30T11:30:49;14.90;;;8.57;;
53273;SDS011;39163;52.696;6.758;2024-01-30T11:33:26;12.98;;;7.78;;
53273;SDS011;39163;52.696;6.758;2024-01-30T11:35:56;10.38;;;7.38;;
53273;SDS011;39163;52.696;6.758;2024-01-30T11:38:23;15.77;;;8.65;;
53273;SDS011;39163;52.696;6.758;2024-01-30T11:40:53;12.93;;;7.88;;
53273;SDS011;39163;52.696;6.758;2024-01-30T11:43:21;14.07;;;8.00;;
53273;SDS011;39163;52.696;6.758;2024-01-30T11:45:49;12.65;;;7.50;;
53273;SDS011;39163;52.696;6.758;2024-01-30T11:48:17;13.05;;;8.52;;
53273;SDS011;39163;52.696;6.758;2024-01-30T11:50:44;20.77;;;10.73;;
53273;SDS011;39163;52.696;6.758;2024-01-30T11:53:11;18.08;;;9.32;;
53273;SDS011;39163;52.696;6.758;2024-01-30T11:55:38;18.25;;;9.88;;
53273;SDS011;39163;52.696;6.758;2024-01-30T11:58:05;18.10;;;8.05;;
53273;SDS011;39163;52.696;6.758;2024-01-30T12:00:32;14.68;;;9.75;;
53273;SDS011;39163;52.696;6.758;2024-01-30T12:03:00;15.98;;;9.00;;
53273;SDS011;39163;52.696;6.758;2024-01-30T12:05:28;16.92;;;9.13;;
53273;SDS011;39163;52.696;6.758;2024-01-30T12:07:55;12.45;;;8.13;;
53273;SDS011;39163;52.696;6.758;2024-01-30T12:10:24;14.80;;;8.07;;
53273;SDS011;39163;52.696;6.758;2024-01-30T12:12:52;16.45;;;8.07;;
53273;SDS011;39163;52.696;6.758;2024-01-30T12:15:21;12.07;;;7.22;;
53273;SDS011;39163;52.696;6.758;2024-01-30T12:17:48;13.88;;;6.95;;
53273;SDS011;39163;52.696;6.758;2024-01-30T12:20:18;11.02;;;7.43;;
53273;SDS011;39163;52.696;6.758;2024-01-30T12:22:46;13.30;;;7.40;;
53273;SDS011;39163;52.696;6.758;2024-01-30T12:25:15;15.45;;;8.27;;
53273;SDS011;39163;52.696;6.758;2024-01-30T12:27:43;14.02;;;6.70;;
53273;SDS011;39163;52.696;6.758;2024-01-30T12:30:11;12.70;;;7.35;;
53273;SDS011;39163;52.696;6.758;2024-01-30T12:32:40;13.23;;;7.10;;
53273;SDS011;39163;52.696;6.758;2024-01-30T12:35:09;9.10;;;6.63;;
53273;SDS011;39163;52.696;6.758;2024-01-30T12:37:38;10.68;;;5.60;;
53273;SDS011;39163;52.696;6.758;2024-01-30T12:40:06;11.20;;;6.53;;
53273;SDS011;39163;52.696;6.758;2024-01-30T12:42:35;13.35;;;7.28;;
53273;SDS011;39163;52.696;6.758;2024-01-30T12:45:02;10.00;;;6.18;;
53273;SDS011;39163;52.696;6.758;2024-01-30T12:47:30;11.13;;;6.30;;
53273;SDS011;39163;52.696;6.758;2024-01-30T12:49:57;8.93;;;6.78;;
53273;SDS011;39163;52.696;6.758;2024-01-30T12:52:24;12.68;;;6.43;;
53273;SDS011;39163;52.696;6.758;2024-01-30T12:54:53;12.90;;;7.57;;
53273;SDS011;39163;52.696;6.758;2024-01-30T12:57:20;15.27;;;8.80;;
53273;SDS011;39163;52.696;6.758;2024-01-30T12:59:47;13.55;;;7.25;;
53273;SDS011;39163;52.696;6.758;2024-01-30T13:02:14;13.10;;;7.00;;
53273;SDS011;39163;52.696;6.758;2024-01-30T13:04:41;12.15;;;7.07;;
53273;SDS011;39163;52.696;6.758;2024-01-30T13:07:09;11.10;;;7.10;;
53273;SDS011;39163;52.696;6.758;2024-01-30T13:09:36;10.63;;;6.50;;
53273;SDS011;39163;52.696;6.758;2024-01-30T13:12:04;12.35;;;6.15;;
53273;SDS011;39163;52.696;6.758;2024-01-30T13:14:32;11.27;;;5.07;;
53273;SDS011;39163;52.696;6.758;2024-01-30T13:16:59;9.70;;;5.22;;
53273;SDS011;39163;52.696;6.758;2024-01-30T13:19:26;14.23;;;5.28;;
53273;SDS011;39163;52.696;6.758;2024-01-30T13:21:53;9.88;;;4.38;;
53273;SDS011;39163;52.696;6.758;2024-01-30T13:24:20;10.77;;;3.88;;
53273;SDS011;39163;52.696;6.758;2024-01-30T13:26:47;15.32;;;4.72;;
53273;SDS011;39163;52.696;6.758;2024-01-30T13:29:16;10.48;;;3.58;;
53273;SDS011;39163;52.696;6.758;2024-01-30T13:31:43;10.52;;;3.58;;
53273;SDS011;39163;52.696;6.758;2024-01-30T13:34:11;7.07;;;3.58;;
53273;SDS011;39163;52.696;6.758;2024-01-30T13:36:39;8.77;;;3.45;;
53273;SDS011;39163;52.696;6.758;2024-01-30T13:41:36;5.82;;;3.03;;
53273;SDS011;39163;52.696;6.758;2024-01-30T13:44:03;7.45;;;2.65;;
53273;SDS011;39163;52.696;6.758;2024-01-30T13:46:31;8.57;;;2.58;;
53273;SDS011;39163;52.696;6.758;2024-01-30T13:49:00;5.88;;;2.25;;
53273;SDS011;39163;52.696;6.758;2024-01-30T13:51:28;6.93;;;1.38;;
53273;SDS011;39163;52.696;6.758;2024-01-30T13:53:55;3.33;;;1.42;;
53273;SDS011;39163;52.696;6.758;2024-01-30T13:56:22;5.70;;;1.30;;
53273;SDS011;39163;52.696;6.758;2024-01-30T13:58:49;3.05;;;1.40;;
53273;SDS011;39163;52.696;6.758;2024-01-30T14:01:16;4.50;;;1.42;;
53273;SDS011;39163;52.696;6.758;2024-01-30T14:03:45;4.97;;;2.00;;
53273;SDS011;39163;52.696;6.758;2024-01-30T14:06:12;7.90;;;2.15;;
53273;SDS011;39163;52.696;6.758;2024-01-30T14:08:39;3.63;;;1.92;;
53273;SDS011;39163;52.696;6.758;2024-01-30T14:11:06;2.70;;;1.60;;
53273;SDS011;39163;52.696;6.758;2024-01-30T14:13:33;4.63;;;1.83;;
53273;SDS011;39163;52.696;6.758;2024-01-30T14:16:00;5.03;;;2.38;;
53273;SDS011;39163;52.696;6.758;2024-01-30T14:18:27;6.35;;;2.53;;
53273;SDS011;39163;52.696;6.758;2024-01-30T14:20:55;6.55;;;2.63;;
53273;SDS011;39163;52.696;6.758;2024-01-30T14:23:22;3.15;;;1.60;;
53273;SDS011;39163;52.696;6.758;2024-01-30T14:25:50;5.88;;;1.67;;
53273;SDS011;39163;52.696;6.758;2024-01-30T14:28:17;6.78;;;1.80;;
53273;SDS011;39163;52.696;6.758;2024-01-30T14:30:44;3.72;;;1.48;;
53273;SDS011;39163;52.696;6.758;2024-01-30T14:33:12;6.28;;;1.63;;